North Cascades National Park, WA

2:05 AM PDT on August 29, 2016 (GMT -0700)
Newhalem Helistop | | Change Station

Elev 504 ft 48.67 °N, 121.25 °W | Updated 47 seconds ago

Overcast
Overcast
56.3 °F
Feels Like 56.3 °F
N
0.0
Wind Variable Wind from WNW

Today
High -- | Low -- °F
--% Chance of Precip.
Yesterday
High -- | Low -- °F
Precip. -- in
Pressure 30.08 in
Visibility 7.0 miles
Clouds Overcast 400 ft
Dew Point 55 °F
Humidity 94%
Rainfall 0.00 in
Snow Depth Not available.
6:19 AM 7:52 PM
Waning Crescent, 10% visible
METAR KAWO 290855Z 00000KT 7SM OVC004 13/08 A3008 RMK AO1 52003
Pressure 30.08 in
Visibility 7.0 miles
Clouds Overcast 400 ft
Dew Point 55 °F
Humidity 94%
Rainfall 0.00 in
Snow Depth Not available.
6:19 AM 7:52 PM
Waning Crescent, 10% visible
METAR KAWO 290855Z 00000KT 7SM OVC004 13/08 A3008 RMK AO1 52003

10-Day Weather Forecast

Almanac

Astronomy

Aug. 29, 2016 Rise Set
Actual Time
Civil Twilight
Nautical Twilight
Astronomical Twilight
Moon
Length of Visible Light
Length of Day
Tomorrow will be .
, % of the Moon is Illuminated

Today's Extremes

State Highs State Lows

Community

WunderPhotos

Upload Photos

1,935,798 photos uploaded!

WunderBlog® & News

Nearby

Air Quality

  Air Quality AQ Index Pollutant
Not available.

Snow Depth

Station Depth Elevation

Earthquake Activity

City Distance Mag. Time & Date
Minimum magnitude displayed is 2.5.

Coastal Water Temperatures

Place Temperature

Stations

Nearby Weather Stations

Station Location Temp. Windchill Dew Point Humidity Wind Precip. Elev Updated Type
                   

Watches & Warnings

There are currently no watches in effect.